createdAt,value
2018-06-12T00:00:15.296Z,94342.27
2018-06-12T00:02:44.527Z,94336.89
2018-06-12T00:05:13.756Z,94339.16
2018-06-12T00:07:42.965Z,94339.63
2018-06-12T00:10:12.195Z,94341.75
2018-06-12T00:12:41.422Z,94344.22
2018-06-12T00:15:10.634Z,94343.20
2018-06-12T00:17:39.876Z,94348.53
2018-06-12T00:20:09.104Z,94349.48
2018-06-12T00:22:38.459Z,94352.20
2018-06-12T00:25:07.731Z,94342.21
2018-06-12T00:27:36.958Z,94348.84
2018-06-12T00:30:06.967Z,94338.66
2018-06-12T00:32:36.247Z,94331.05
2018-06-12T00:35:05.488Z,94342.23
2018-06-12T00:37:34.759Z,94344.91
2018-06-12T00:40:04.000Z,94339.40
2018-06-12T00:42:33.242Z,94329.80
2018-06-12T00:45:02.478Z,94329.19
2018-06-12T00:47:31.687Z,94330.95
2018-06-12T00:50:01.839Z,94326.41
2018-06-12T00:52:31.063Z,94329.77
2018-06-12T00:55:00.297Z,94330.61
2018-06-12T00:57:29.508Z,94333.22
2018-06-12T00:59:58.746Z,94330.37
2018-06-12T01:02:27.965Z,94331.34
2018-06-12T01:04:57.191Z,94332.57
2018-06-12T01:07:26.425Z,94329.00
2018-06-12T01:09:55.646Z,94329.11
2018-06-12T01:12:24.887Z,94331.70
2018-06-12T01:14:54.109Z,94326.05
2018-06-12T01:17:23.439Z,94339.05
2018-06-12T01:19:52.723Z,94331.55
2018-06-12T01:22:21.949Z,94334.03
2018-06-12T01:24:51.163Z,94341.80
2018-06-12T01:27:20.399Z,94350.62
2018-06-12T01:29:49.640Z,94346.27
2018-06-12T01:32:18.863Z,94345.14
2018-06-12T01:34:48.099Z,94342.69
2018-06-12T01:37:17.392Z,94339.08
2018-06-12T01:39:46.618Z,94346.03
2018-06-12T01:42:15.867Z,94345.22
2018-06-12T01:44:45.070Z,94349.84
2018-06-12T01:47:14.323Z,94342.42
2018-06-12T01:49:43.699Z,94341.91
2018-06-12T01:52:12.902Z,94346.69
2018-06-12T01:54:42.122Z,94345.39
2018-06-12T01:57:11.123Z,94346.61
2018-06-12T01:59:40.358Z,94348.46
2018-06-12T02:02:09.612Z,94345.23
2018-06-12T02:04:38.878Z,94350.83
2018-06-12T02:07:08.090Z,94350.01
2018-06-12T02:09:37.322Z,94354.59
2018-06-12T02:12:06.531Z,94355.28
2018-06-12T02:14:35.773Z,94353.72
2018-06-12T02:17:05.300Z,94351.75
2018-06-12T02:19:34.507Z,94352.52
2018-06-12T02:22:03.720Z,94353.64
2018-06-12T02:44:13.146Z,94362.09
2018-06-12T02:49:18.426Z,94348.61
2018-06-12T02:51:47.671Z,94342.46
2018-06-12T02:54:16.871Z,94337.78
2018-06-12T02:56:46.105Z,94338.31
2018-06-12T02:59:15.326Z,94328.77
2018-06-12T03:01:44.557Z,94340.30
2018-06-12T03:04:13.766Z,94344.66
2018-06-12T03:06:42.999Z,94342.62
2018-06-12T03:09:12.219Z,94346.73
2018-06-12T03:11:41.505Z,94346.42
2018-06-12T03:14:10.730Z,94349.58
2018-06-12T03:16:40.112Z,94342.26
2018-06-12T03:19:09.318Z,94350.34
2018-06-12T03:21:38.543Z,94349.03
2018-06-12T03:24:07.590Z,94354.48
2018-06-12T03:26:36.840Z,94349.70
2018-06-12T03:29:06.074Z,94340.75
2018-06-12T03:31:35.294Z,94332.38
2018-06-12T03:34:04.526Z,94341.33
2018-06-12T03:36:33.757Z,94342.52
2018-06-12T03:39:02.955Z,94344.91
2018-06-12T03:41:33.410Z,94336.22
2018-06-12T03:44:02.627Z,94330.95
2018-06-12T03:46:31.847Z,94338.77
2018-06-12T03:49:01.064Z,94334.12
2018-06-12T03:51:30.273Z,94334.02
2018-06-12T03:53:59.478Z,94337.41
2018-06-12T03:56:28.695Z,94342.27
2018-06-12T03:58:57.919Z,94352.27
2018-06-12T04:01:27.175Z,94358.58
2018-06-12T04:03:56.420Z,94356.95
2018-06-12T04:06:25.678Z,94363.05
2018-06-12T04:08:54.976Z,94360.80
2018-06-12T04:11:24.203Z,94363.41
2018-06-12T04:13:53.414Z,94361.45
2018-06-12T04:16:22.659Z,94353.05
2018-06-12T04:18:51.876Z,94353.56
2018-06-12T04:21:21.461Z,94349.08
2018-06-12T04:23:50.682Z,94354.22
2018-06-12T04:26:19.914Z,94359.66
2018-06-12T04:28:49.206Z,94350.51
2018-06-12T04:31:18.417Z,94357.86
2018-06-12T04:33:47.659Z,94357.89
2018-06-12T04:36:16.917Z,94365.83
2018-06-12T04:38:46.146Z,94357.41
2018-06-12T04:41:15.465Z,94362.40
2018-06-12T04:43:44.722Z,94363.33
2018-06-12T04:46:13.931Z,94360.64
2018-06-12T04:48:43.227Z,94358.34
2018-06-12T04:51:12.439Z,94362.44
2018-06-12T04:53:41.743Z,94361.43
2018-06-12T04:56:11.038Z,94359.39
2018-06-12T04:58:40.342Z,94362.95
2018-06-12T05:01:09.563Z,94359.14
2018-06-12T05:03:38.862Z,94367.25
2018-06-12T05:06:08.066Z,94367.32
2018-06-12T05:08:37.279Z,94362.06
2018-06-12T05:11:06.504Z,94366.22
2018-06-12T05:13:35.738Z,94379.89
2018-06-12T05:16:04.965Z,94378.67
2018-06-12T05:18:34.205Z,94380.05
2018-06-12T05:21:03.474Z,94377.21
2018-06-12T05:23:32.688Z,94377.64
2018-06-12T05:26:01.922Z,94379.66
2018-06-12T05:28:31.172Z,94385.59
2018-06-12T05:31:00.472Z,94382.09
2018-06-12T05:33:29.706Z,94388.98
2018-06-12T05:35:58.937Z,94386.06
2018-06-12T05:38:28.371Z,94388.28
2018-06-12T05:40:57.656Z,94386.06
2018-06-12T05:43:26.952Z,94391.37
2018-06-12T05:45:56.267Z,94385.67
2018-06-12T05:48:25.483Z,94385.63
2018-06-12T05:50:54.846Z,94390.11
2018-06-12T05:53:24.107Z,94388.80
2018-06-12T05:55:53.326Z,94388.26
2018-06-12T05:58:22.535Z,94396.52
2018-06-12T06:00:51.755Z,94402.15
2018-06-12T06:03:21.070Z,94404.30
2018-06-12T06:05:50.314Z,94398.80
2018-06-12T06:08:19.547Z,94394.66
2018-06-12T06:10:48.774Z,94395.75
2018-06-12T06:13:17.824Z,94391.05
2018-06-12T06:15:47.130Z,94398.13
2018-06-12T06:18:16.358Z,94399.05
2018-06-12T06:20:45.587Z,94399.41
2018-06-12T06:23:14.816Z,94410.80
2018-06-12T06:25:44.083Z,94416.71
2018-06-12T06:28:13.359Z,94410.62
2018-06-12T06:30:42.568Z,94418.36
2018-06-12T06:33:11.823Z,94418.66
2018-06-12T06:35:41.056Z,94421.30
2018-06-12T06:38:10.426Z,94418.28
2018-06-12T06:40:39.676Z,94412.30
2018-06-12T06:43:08.995Z,94410.57
2018-06-12T06:45:38.271Z,94415.63
2018-06-12T06:48:07.592Z,94405.37
2018-06-12T06:50:36.878Z,94400.03
2018-06-12T06:53:06.191Z,94401.38
2018-06-12T06:55:35.489Z,94396.60
2018-06-12T06:58:04.841Z,94401.85
2018-06-12T07:00:34.056Z,94393.48
2018-06-12T07:03:03.268Z,94401.47
2018-06-12T07:05:32.497Z,94401.05
2018-06-12T07:08:01.736Z,94404.35
2018-06-12T07:10:30.968Z,94410.69
2018-06-12T07:13:00.186Z,94409.91
2018-06-12T07:15:29.455Z,94411.25
2018-06-12T07:17:58.666Z,94408.58
2018-06-12T07:20:44.811Z,94411.53
2018-06-12T07:23:14.006Z,94411.81
2018-06-12T07:25:43.227Z,94413.67
2018-06-12T07:28:12.416Z,94412.84
2018-06-12T07:30:41.651Z,94417.90
2018-06-12T07:33:10.879Z,94415.67
2018-06-12T07:35:40.104Z,94412.33
2018-06-12T07:38:09.318Z,94406.53
2018-06-12T07:40:38.610Z,94404.94
2018-06-12T07:43:07.847Z,94398.48
2018-06-12T07:45:37.137Z,94404.89
2018-06-12T07:48:06.418Z,94408.25
2018-06-12T07:50:35.625Z,94401.64
2018-06-12T07:53:04.923Z,94401.30
2018-06-12T07:55:34.138Z,94404.06
2018-06-12T07:58:03.409Z,94407.55
2018-06-12T08:00:32.645Z,94408.45
2018-06-12T08:03:01.957Z,94409.84
2018-06-12T08:05:31.184Z,94405.69
2018-06-12T08:08:00.395Z,94405.66
2018-06-12T08:10:29.610Z,94406.94
2018-06-12T08:12:58.852Z,94406.24
2018-06-12T08:15:28.098Z,94412.59
2018-06-12T08:18:28.506Z,94406.48
2018-06-12T08:20:57.791Z,94405.09
2018-06-12T08:23:27.080Z,94402.16
2018-06-12T08:25:56.302Z,94403.64
2018-06-12T08:28:25.510Z,94404.31
2018-06-12T08:30:54.749Z,94400.84
2018-06-12T08:33:25.231Z,94406.39
2018-06-12T08:35:54.438Z,94393.95
2018-06-12T08:38:23.647Z,94402.12
2018-06-12T08:40:53.024Z,94398.72
2018-06-12T08:43:22.246Z,94398.28
2018-06-12T08:45:51.480Z,94394.22
2018-06-12T08:48:20.698Z,94397.31
2018-06-12T08:50:49.942Z,94390.90
2018-06-12T08:53:19.234Z,94385.09
2018-06-12T08:55:48.548Z,94387.53
2018-06-12T08:58:17.841Z,94385.02
2018-06-12T09:00:47.166Z,94382.44
2018-06-12T09:03:16.382Z,94380.53
2018-06-12T09:05:45.622Z,94381.06
2018-06-12T09:08:14.841Z,94376.92
2018-06-12T09:10:44.067Z,94380.55
2018-06-12T09:13:13.279Z,94379.20
2018-06-12T09:15:42.538Z,94387.53
2018-06-12T09:18:11.754Z,94381.61
2018-06-12T09:20:41.082Z,94379.97
2018-06-12T09:23:10.383Z,94374.52
2018-06-12T09:25:39.606Z,94374.22
2018-06-12T09:28:08.856Z,94368.78
2018-06-12T09:30:38.095Z,94371.44
2018-06-12T09:33:07.330Z,94364.42
2018-06-12T09:35:36.702Z,94356.55
2018-06-12T09:38:06.231Z,94363.25
2018-06-12T09:40:35.443Z,94373.05
2018-06-12T09:43:04.942Z,94369.33
2018-06-12T09:45:34.174Z,94369.07
2018-06-12T09:48:03.418Z,94376.00
2018-06-12T09:50:32.744Z,94376.13
2018-06-12T09:53:01.967Z,94368.16
2018-06-12T09:55:31.203Z,94373.09
2018-06-12T09:58:00.442Z,94371.46
2018-06-12T10:00:34.958Z,94367.03
2018-06-12T10:03:04.201Z,94373.73
2018-06-12T10:05:33.466Z,94369.94
2018-06-12T10:08:02.699Z,94373.70
2018-06-12T10:10:31.998Z,94369.03
2018-06-12T10:13:01.312Z,94365.95
2018-06-12T10:15:30.531Z,94362.56
2018-06-12T10:17:59.493Z,94365.40
2018-06-12T10:20:28.706Z,94358.35
2018-06-12T10:22:57.907Z,94357.50
2018-06-12T10:25:27.403Z,94357.52
2018-06-12T10:27:56.609Z,94355.18
2018-06-12T10:30:25.800Z,94354.65
2018-06-12T10:32:55.023Z,94363.58
2018-06-12T10:35:24.302Z,94357.64
2018-06-12T10:37:53.607Z,94352.27
2018-06-12T10:40:22.902Z,94347.19
2018-06-12T10:42:52.106Z,94348.34
2018-06-12T10:45:21.400Z,94345.57
2018-06-12T10:47:50.627Z,94337.31
2018-06-12T10:50:19.843Z,94337.37
2018-06-12T10:52:49.071Z,94339.55
2018-06-12T10:55:18.302Z,94346.54
2018-06-12T10:57:47.550Z,94340.89
2018-06-12T11:00:16.771Z,94336.48
2018-06-12T11:02:46.006Z,94333.58
2018-06-12T11:05:15.227Z,94327.03
2018-06-12T11:07:44.694Z,94311.89
2018-06-12T11:10:13.923Z,94306.92
2018-06-12T11:12:43.141Z,94306.36
2018-06-12T11:15:12.369Z,94302.46
2018-06-12T11:17:41.617Z,94296.30
2018-06-12T11:20:10.935Z,94301.81
2018-06-12T11:22:40.315Z,94294.82
2018-06-12T11:25:09.539Z,94289.73
2018-06-12T11:27:38.758Z,94289.36
2018-06-12T11:30:07.967Z,94277.70
2018-06-12T11:32:38.042Z,94270.34
2018-06-12T11:35:07.257Z,94269.97
2018-06-12T11:37:36.495Z,94255.14
2018-06-12T11:40:06.042Z,94256.20
2018-06-12T11:42:35.291Z,94237.95
2018-06-12T11:45:04.719Z,94231.68
2018-06-12T11:47:34.010Z,94227.30
2018-06-12T11:50:03.266Z,94224.19
2018-06-12T11:52:32.523Z,94217.15
2018-06-12T11:55:01.855Z,94212.31
2018-06-12T11:57:31.055Z,94217.60
2018-06-12T12:00:00.253Z,94214.34
2018-06-12T12:02:29.475Z,94206.38
2018-06-12T12:04:58.695Z,94206.07
2018-06-12T12:07:27.923Z,94194.80
2018-06-12T12:09:57.142Z,94194.97
2018-06-12T12:12:26.366Z,94183.48
2018-06-12T12:15:26.843Z,94198.11
2018-06-12T12:17:56.106Z,94183.86
2018-06-12T12:20:25.343Z,94180.14
2018-06-12T12:22:54.791Z,94179.52
2018-06-12T12:25:24.000Z,94173.19
2018-06-12T12:27:53.199Z,94181.06
2018-06-12T12:30:22.430Z,94186.07
2018-06-12T12:32:51.679Z,94190.90
2018-06-12T12:35:20.883Z,94190.94
2018-06-12T12:37:50.098Z,94189.19
2018-06-12T12:40:19.310Z,94192.03
2018-06-12T12:42:48.522Z,94192.05
2018-06-12T12:45:17.751Z,94192.83
2018-06-12T12:47:46.995Z,94184.55
2018-06-12T12:50:16.257Z,94186.69
2018-06-12T12:52:45.494Z,94189.64
2018-06-12T12:55:14.704Z,94192.08
2018-06-12T12:57:43.930Z,94199.70
2018-06-12T13:00:19.749Z,94191.11
2018-06-12T13:02:48.972Z,94188.72
2018-06-12T13:05:18.158Z,94175.02
2018-06-12T13:07:47.402Z,94170.91
2018-06-12T13:14:18.409Z,94167.02
2018-06-12T13:16:47.709Z,94161.79
2018-06-12T13:19:16.987Z,94163.88
2018-06-12T13:21:46.199Z,94161.05
2018-06-12T13:24:15.431Z,94169.14
2018-06-12T13:26:44.699Z,94176.82
2018-06-12T13:29:13.879Z,94179.29
2018-06-12T13:31:43.122Z,94170.81
2018-06-12T13:34:12.351Z,94173.20
2018-06-12T13:36:41.592Z,94177.98
2018-06-12T13:39:10.802Z,94177.23
2018-06-12T13:41:40.094Z,94175.42
2018-06-12T13:44:09.305Z,94173.05
2018-06-12T13:46:38.545Z,94167.95
2018-06-12T13:49:07.767Z,94160.93
2018-06-12T13:51:36.979Z,94158.36
2018-06-12T13:54:06.318Z,94159.30
2018-06-12T13:56:35.546Z,94155.83
2018-06-12T13:59:04.786Z,94150.55
2018-06-12T14:01:34.118Z,94152.75
2018-06-12T14:04:03.481Z,94159.58
2018-06-12T14:06:32.683Z,94149.95
2018-06-12T14:09:01.906Z,94151.03
2018-06-12T14:11:31.184Z,94151.61
2018-06-12T14:14:00.351Z,94152.15
2018-06-12T14:16:29.635Z,94146.00
2018-06-12T14:18:58.939Z,94148.37
2018-06-12T14:21:28.174Z,94152.92
2018-06-12T14:23:57.419Z,94153.45
2018-06-12T14:26:26.661Z,94149.44
2018-06-12T14:28:55.890Z,94155.48
2018-06-12T14:31:25.105Z,94153.73
2018-06-12T14:33:54.397Z,94162.41
2018-06-12T14:36:23.572Z,94168.71
2018-06-12T14:38:52.866Z,94165.20
2018-06-12T14:41:22.074Z,94168.75
2018-06-12T14:43:51.307Z,94169.97
2018-06-12T14:46:20.552Z,94173.68
2018-06-12T14:48:49.751Z,94175.06
2018-06-12T14:51:18.962Z,94175.78
2018-06-12T14:53:48.219Z,94179.77
2018-06-12T14:56:17.477Z,94190.66
2018-06-12T14:58:46.718Z,94190.03
2018-06-12T15:01:15.985Z,94185.63
2018-06-12T15:03:45.229Z,94187.77
2018-06-12T15:06:14.478Z,94192.91
2018-06-12T15:08:43.719Z,94192.36
2018-06-12T15:11:12.959Z,94186.13
2018-06-12T15:13:42.209Z,94193.77
2018-06-12T15:16:11.565Z,94193.13
2018-06-12T15:18:40.810Z,94193.45
2018-06-12T15:21:10.061Z,94194.47
2018-06-12T15:23:39.318Z,94194.88
2018-06-12T15:26:08.512Z,94200.36
2018-06-12T15:28:37.745Z,94203.94
2018-06-12T15:31:07.109Z,94201.99
2018-06-12T15:33:36.335Z,94209.74
2018-06-12T15:36:05.632Z,94206.48
2018-06-12T15:38:34.936Z,94204.33
2018-06-12T15:41:04.174Z,94209.69
2018-06-12T15:43:33.398Z,94214.82
2018-06-12T15:46:02.655Z,94220.78
2018-06-12T15:48:31.955Z,94218.55
2018-06-12T15:51:01.302Z,94212.64
2018-06-12T15:53:30.548Z,94220.39
2018-06-12T15:55:59.778Z,94223.09
2018-06-12T15:58:28.979Z,94221.00
2018-06-12T16:00:58.200Z,94225.19
2018-06-12T16:03:28.431Z,94233.71
2018-06-12T16:05:57.664Z,94234.42
2018-06-12T16:08:26.878Z,94239.58
2018-06-12T16:10:56.114Z,94240.73
2018-06-12T16:13:25.321Z,94239.47
2018-06-12T16:15:54.565Z,94245.16
2018-06-12T16:18:23.775Z,94248.86
2018-06-12T16:21:07.566Z,94246.11
2018-06-12T16:23:36.870Z,94256.89
2018-06-12T16:26:06.147Z,94252.30
2018-06-12T16:28:35.358Z,94257.77
2018-06-12T16:31:04.580Z,94256.33
2018-06-12T16:33:33.849Z,94257.59
2018-06-12T16:36:03.091Z,94261.61
2018-06-12T16:38:32.271Z,94270.50
2018-06-12T16:41:01.507Z,94272.78
2018-06-12T16:43:30.767Z,94279.86
2018-06-12T16:45:59.982Z,94279.08
2018-06-12T16:48:29.198Z,94286.82
2018-06-12T16:50:58.430Z,94288.14
2018-06-12T16:53:27.650Z,94282.39
2018-06-12T16:55:56.861Z,94279.05
2018-06-12T16:58:26.338Z,94275.98
2018-06-12T17:00:55.552Z,94269.41
2018-06-12T17:03:24.766Z,94272.64
2018-06-12T17:05:54.006Z,94271.45
2018-06-12T17:08:23.315Z,94264.90
2018-06-12T17:10:52.538Z,94263.02
2018-06-12T17:13:21.794Z,94261.49
2018-06-12T17:15:51.119Z,94264.92
2018-06-12T17:18:20.341Z,94255.57
2018-06-12T17:20:49.561Z,94249.64
2018-06-12T17:23:18.782Z,94244.22
2018-06-12T17:25:48.014Z,94236.94
2018-06-12T17:28:17.246Z,94231.97
2018-06-12T17:30:46.458Z,94228.77
2018-06-12T17:33:15.726Z,94228.28
2018-06-12T17:35:44.954Z,94230.98
2018-06-12T17:38:14.179Z,94234.80
2018-06-12T17:40:43.418Z,94237.43
2018-06-12T17:43:12.740Z,94240.72
2018-06-12T17:45:42.003Z,94244.15
2018-06-12T17:48:11.223Z,94244.20
2018-06-12T17:50:40.451Z,94246.80
2018-06-12T17:53:09.679Z,94243.31
2018-06-12T17:55:38.656Z,94240.11
2018-06-12T17:58:07.870Z,94247.42
2018-06-12T18:00:37.132Z,94247.35
2018-06-12T18:03:06.367Z,94244.30
2018-06-12T18:05:35.510Z,94256.76
2018-06-12T18:08:04.832Z,94257.58
2018-06-12T18:10:34.055Z,94260.46
2018-06-12T18:13:03.286Z,94256.23
2018-06-12T18:15:32.500Z,94260.31
2018-06-12T18:18:01.759Z,94266.05
2018-06-12T18:20:31.036Z,94269.11
2018-06-12T18:23:00.276Z,94263.37
2018-06-12T18:25:29.515Z,94267.64
2018-06-12T18:27:58.743Z,94267.13
2018-06-12T18:30:28.017Z,94273.90
2018-06-12T18:32:57.186Z,94267.77
2018-06-12T18:35:26.426Z,94273.85
2018-06-12T18:37:55.649Z,94270.33
2018-06-12T18:40:24.928Z,94272.05
2018-06-12T18:42:55.344Z,94273.85
2018-06-12T18:45:24.554Z,94267.23
2018-06-12T18:47:53.771Z,94266.38
2018-06-12T18:50:22.992Z,94271.32
2018-06-12T18:52:52.250Z,94270.52
2018-06-12T18:55:21.472Z,94272.08
2018-06-12T18:57:50.691Z,94274.34
2018-06-12T19:00:19.903Z,94276.79
2018-06-12T19:02:49.128Z,94278.59
2018-06-12T19:05:18.343Z,94278.66
2018-06-12T19:07:47.574Z,94267.86
2018-06-12T19:10:16.836Z,94279.50
2018-06-12T19:12:46.066Z,94276.03
2018-06-12T19:15:15.291Z,94274.21
2018-06-12T19:17:44.494Z,94271.84
2018-06-12T19:20:13.706Z,94275.46
2018-06-12T19:22:42.926Z,94271.40
2018-06-12T19:25:12.178Z,94273.96
2018-06-12T19:27:41.434Z,94279.77
2018-06-12T19:30:10.666Z,94277.13
2018-06-12T19:32:39.883Z,94271.53
2018-06-12T19:35:09.338Z,94264.98
2018-06-12T19:37:38.536Z,94263.80
2018-06-12T19:40:07.740Z,94263.39
2018-06-12T19:42:36.958Z,94264.38
2018-06-12T19:45:06.210Z,94265.43
2018-06-12T19:47:35.443Z,94266.38
2018-06-12T19:50:04.700Z,94266.38
2018-06-12T19:52:33.978Z,94264.27
2018-06-12T19:55:03.307Z,94261.02
2018-06-12T19:57:32.518Z,94259.13
2018-06-12T20:00:01.747Z,94259.33
2018-06-12T20:02:30.954Z,94265.80
2018-06-12T20:05:00.206Z,94261.26
2018-06-12T20:07:29.422Z,94256.98
2018-06-12T20:09:58.662Z,94265.23
2018-06-12T20:12:27.893Z,94262.78
2018-06-12T20:14:57.144Z,94267.88
2018-06-12T20:17:26.703Z,94268.95
2018-06-12T20:19:55.998Z,94266.17
2018-06-12T20:22:25.200Z,94265.94
2018-06-12T20:24:54.427Z,94266.81
2018-06-12T20:29:59.034Z,94262.04
2018-06-12T20:32:28.287Z,94279.60
2018-06-12T20:34:57.525Z,94279.80
2018-06-12T20:37:26.748Z,94275.03
2018-06-12T20:39:55.965Z,94276.34
2018-06-12T20:42:25.218Z,94281.58
2018-06-12T20:44:54.446Z,94278.80
2018-06-12T20:47:23.674Z,94284.45
2018-06-12T20:49:52.899Z,94285.91
2018-06-12T20:52:22.146Z,94285.34
2018-06-12T20:54:51.585Z,94285.23
2018-06-12T20:57:20.843Z,94286.05
2018-06-12T20:59:50.083Z,94285.61
2018-06-12T21:02:19.310Z,94281.50
2018-06-12T21:04:48.533Z,94273.88
2018-06-12T21:07:17.854Z,94273.03
2018-06-12T21:09:47.052Z,94269.27
2018-06-12T21:12:16.315Z,94264.17
2018-06-12T21:14:45.619Z,94265.36
2018-06-12T21:17:14.826Z,94264.77
2018-06-12T21:19:44.047Z,94267.56
2018-06-12T21:22:13.252Z,94264.78
2018-06-12T21:24:42.485Z,94270.34
2018-06-12T21:27:11.691Z,94275.06
2018-06-12T21:29:40.932Z,94271.26
2018-06-12T21:32:10.244Z,94268.66
2018-06-12T21:34:39.543Z,94268.92
2018-06-12T21:37:08.749Z,94270.81
2018-06-12T21:39:38.002Z,94275.16
2018-06-12T21:42:07.248Z,94271.84
2018-06-12T21:44:36.572Z,94270.07
2018-06-12T21:47:05.798Z,94268.85
2018-06-12T21:49:35.023Z,94260.03
2018-06-12T21:52:04.251Z,94253.39
2018-06-12T21:54:33.498Z,94257.56
2018-06-12T21:57:02.714Z,94255.29
2018-06-12T21:59:31.682Z,94246.64
2018-06-12T22:02:00.978Z,94245.45
2018-06-12T22:04:30.282Z,94249.52
2018-06-12T22:06:59.502Z,94248.20
2018-06-12T22:09:28.718Z,94248.77
2018-06-12T22:11:57.930Z,94253.32
2018-06-12T22:14:30.049Z,94250.91
2018-06-12T22:16:59.303Z,94253.80
2018-06-12T22:19:28.517Z,94255.39
2018-06-12T22:21:57.744Z,94265.94
2018-06-12T22:26:47.771Z,94258.00
2018-06-12T22:29:16.978Z,94253.77
2018-06-12T22:31:46.199Z,94251.33
2018-06-12T22:34:15.410Z,94252.14
2018-06-12T22:36:44.628Z,94245.45
2018-06-12T22:39:13.870Z,94252.06
2018-06-12T22:41:43.083Z,94241.35
2018-06-12T22:44:12.297Z,94246.54
2018-06-12T22:49:06.455Z,94249.12
2018-06-12T22:51:35.961Z,94250.61
2018-06-12T22:54:05.310Z,94254.95
2018-06-12T22:56:34.519Z,94253.31
2018-06-12T22:59:03.743Z,94253.31
2018-06-12T23:01:33.012Z,94251.85
2018-06-12T23:04:02.214Z,94257.43
2018-06-12T23:06:31.443Z,94251.77
2018-06-12T23:09:00.766Z,94255.97
2018-06-12T23:11:30.000Z,94252.29
2018-06-12T23:13:59.218Z,94244.48
2018-06-12T23:16:28.456Z,94240.97
2018-06-12T23:18:57.681Z,94245.16
2018-06-12T23:21:45.723Z,94244.37
2018-06-12T23:24:15.067Z,94242.88
2018-06-12T23:26:44.281Z,94244.78
2018-06-12T23:29:13.470Z,94241.64
2018-06-12T23:31:42.720Z,94235.91
2018-06-12T23:34:11.947Z,94239.42
2018-06-12T23:36:41.203Z,94237.66
2018-06-12T23:39:10.495Z,94233.31
2018-06-12T23:41:39.698Z,94238.18
2018-06-12T23:44:08.905Z,94238.41
2018-06-12T23:46:38.117Z,94235.89
2018-06-12T23:49:07.315Z,94231.13
2018-06-12T23:51:36.537Z,94227.50
2018-06-12T23:54:05.778Z,94227.27
2018-06-12T23:56:36.023Z,94224.49
2018-06-12T23:59:05.382Z,94223.55
